createdAt,value
2016-11-30T00:00:11.910Z,0
2016-11-30T00:01:11.885Z,0
2016-11-30T00:02:11.865Z,0
2016-11-30T00:03:11.843Z,0
2016-11-30T00:04:11.830Z,0
2016-11-30T00:05:11.811Z,0
2016-11-30T00:06:11.817Z,0
2016-11-30T00:07:11.769Z,0
2016-11-30T00:08:11.754Z,0
2016-11-30T00:09:11.745Z,0
2016-11-30T00:10:11.719Z,0
2016-11-30T00:11:11.698Z,0
2016-11-30T00:12:11.676Z,0
2016-11-30T00:13:11.656Z,0
2016-11-30T00:14:11.641Z,0
2016-11-30T00:15:11.617Z,0
2016-11-30T00:16:11.600Z,0
2016-11-30T00:17:11.585Z,0
2016-11-30T00:18:11.560Z,0
2016-11-30T00:19:11.555Z,0
2016-11-30T00:20:11.529Z,0
2016-11-30T00:21:11.538Z,0
2016-11-30T00:22:11.490Z,0
2016-11-30T00:23:11.469Z,0
2016-11-30T00:24:11.450Z,0
2016-11-30T00:25:11.431Z,0
2016-11-30T00:26:11.410Z,0
2016-11-30T00:27:11.391Z,0
2016-11-30T00:28:11.371Z,0
2016-11-30T00:29:11.358Z,0
2016-11-30T00:30:11.652Z,0
2016-11-30T00:31:11.343Z,0
2016-11-30T00:32:11.325Z,0
2016-11-30T00:33:11.284Z,0
2016-11-30T00:34:11.261Z,0
2016-11-30T00:35:11.245Z,0
2016-11-30T00:36:11.218Z,0
2016-11-30T00:37:11.205Z,0
2016-11-30T00:38:11.183Z,0
2016-11-30T00:39:11.159Z,0
2016-11-30T00:40:11.146Z,0
2016-11-30T00:41:11.122Z,0
2016-11-30T00:42:11.102Z,0
2016-11-30T00:43:11.087Z,0
2016-11-30T00:44:11.072Z,0
2016-11-30T00:45:11.048Z,0
2016-11-30T00:46:11.029Z,0
2016-11-30T00:47:11.009Z,0
2016-11-30T00:48:11.020Z,0
2016-11-30T00:49:10.969Z,0
2016-11-30T00:50:10.954Z,0
2016-11-30T00:51:10.938Z,0
2016-11-30T00:52:10.911Z,0
2016-11-30T00:53:10.897Z,0
2016-11-30T00:54:10.875Z,0
2016-11-30T00:55:10.858Z,0
2016-11-30T00:56:10.840Z,0
2016-11-30T00:57:10.849Z,0
2016-11-30T00:58:10.794Z,0
2016-11-30T00:59:10.781Z,0
2016-11-30T01:00:11.103Z,0
2016-11-30T01:01:10.740Z,0
2016-11-30T01:02:10.723Z,0
2016-11-30T01:03:10.714Z,0
2016-11-30T01:04:10.688Z,0
2016-11-30T01:05:10.661Z,0
2016-11-30T01:06:10.644Z,0
2016-11-30T01:07:10.630Z,0
2016-11-30T01:08:10.607Z,0
2016-11-30T01:09:10.905Z,0
2016-11-30T01:10:10.569Z,0
2016-11-30T01:11:10.553Z,0
2016-11-30T01:12:10.533Z,0
2016-11-30T01:13:10.510Z,0
2016-11-30T01:14:10.809Z,0
2016-11-30T01:15:10.479Z,0
2016-11-30T01:16:10.451Z,0
2016-11-30T01:17:10.434Z,0
2016-11-30T01:18:10.413Z,0
2016-11-30T01:19:10.397Z,0
2016-11-30T01:20:10.376Z,0
2016-11-30T01:21:10.365Z,0
2016-11-30T01:22:10.339Z,0
2016-11-30T01:23:10.324Z,0
2016-11-30T01:24:10.301Z,0
2016-11-30T01:25:10.284Z,0
2016-11-30T01:26:10.268Z,0
2016-11-30T01:27:10.562Z,0
2016-11-30T01:28:10.219Z,0
2016-11-30T01:29:10.205Z,0
2016-11-30T01:30:10.184Z,0
2016-11-30T01:31:10.166Z,0
2016-11-30T01:32:10.142Z,0
2016-11-30T01:33:10.132Z,0
2016-11-30T01:34:10.108Z,0
2016-11-30T01:35:10.091Z,0
2016-11-30T01:36:10.072Z,0
2016-11-30T01:37:10.048Z,0
2016-11-30T01:38:10.033Z,0
2016-11-30T01:39:10.012Z,0
2016-11-30T01:40:10.024Z,0
2016-11-30T01:41:09.973Z,0
2016-11-30T01:42:09.958Z,0
2016-11-30T01:43:09.942Z,0
2016-11-30T01:44:09.936Z,0
2016-11-30T01:45:09.901Z,0
2016-11-30T01:46:09.892Z,0
2016-11-30T01:47:09.862Z,0
2016-11-30T01:48:09.851Z,0
2016-11-30T01:49:09.822Z,0
2016-11-30T01:50:09.807Z,0
2016-11-30T01:51:09.783Z,0
2016-11-30T01:52:09.768Z,0
2016-11-30T01:53:09.747Z,0
2016-11-30T01:54:09.732Z,0
2016-11-30T01:55:09.702Z,0
2016-11-30T01:56:09.691Z,0
2016-11-30T01:57:09.667Z,0
2016-11-30T01:58:09.650Z,0
2016-11-30T01:59:09.633Z,0
2016-11-30T02:00:09.612Z,0
2016-11-30T02:01:09.639Z,0
2016-11-30T02:02:09.598Z,0
2016-11-30T02:03:09.554Z,0
2016-11-30T02:04:09.859Z,0
2016-11-30T02:05:10.045Z,0
2016-11-30T02:06:09.495Z,0
2016-11-30T02:07:09.475Z,0
2016-11-30T02:08:09.461Z,0
2016-11-30T02:09:09.443Z,0
2016-11-30T02:10:09.418Z,0
2016-11-30T02:11:09.407Z,0
2016-11-30T02:12:09.392Z,0
2016-11-30T02:13:09.369Z,0
2016-11-30T02:14:09.343Z,0
2016-11-30T02:15:09.331Z,0
2016-11-30T02:16:09.309Z,0
2016-11-30T02:17:09.288Z,0
2016-11-30T02:18:09.273Z,0
2016-11-30T02:19:09.288Z,0
2016-11-30T02:20:09.232Z,0
2016-11-30T02:21:09.217Z,0
2016-11-30T02:22:09.193Z,0
2016-11-30T02:23:09.173Z,0
2016-11-30T02:24:09.158Z,0
2016-11-30T02:25:09.139Z,0
2016-11-30T02:26:09.121Z,0
2016-11-30T02:27:09.098Z,0
2016-11-30T02:28:09.079Z,0
2016-11-30T02:29:09.061Z,0
2016-11-30T02:30:09.044Z,0
2016-11-30T02:31:09.027Z,0
2016-11-30T02:32:09.000Z,0
2016-11-30T02:33:08.987Z,0
2016-11-30T02:34:08.972Z,0
2016-11-30T02:35:08.949Z,0
2016-11-30T02:36:08.931Z,0
2016-11-30T02:37:08.910Z,0
2016-11-30T02:38:08.891Z,0
2016-11-30T02:39:08.876Z,0
2016-11-30T02:40:08.857Z,0
2016-11-30T02:41:08.838Z,0
2016-11-30T02:42:08.816Z,0
2016-11-30T02:43:08.804Z,0
2016-11-30T02:44:08.784Z,0
2016-11-30T02:45:08.764Z,0
2016-11-30T02:46:08.740Z,0
2016-11-30T02:47:08.766Z,0
2016-11-30T02:48:09.020Z,0
2016-11-30T02:49:08.692Z,0
2016-11-30T02:50:08.669Z,0
2016-11-30T02:51:08.648Z,0
2016-11-30T02:52:08.634Z,0
2016-11-30T02:53:08.614Z,0
2016-11-30T02:54:08.592Z,0
2016-11-30T02:55:08.577Z,0
2016-11-30T02:56:08.558Z,0
2016-11-30T02:57:08.534Z,0
2016-11-30T02:58:08.523Z,0
2016-11-30T02:59:08.499Z,0
2016-11-30T03:00:08.479Z,0
2016-11-30T03:01:08.459Z,0
2016-11-30T03:02:08.501Z,0
2016-11-30T03:03:08.430Z,0
2016-11-30T03:04:09.102Z,0
2016-11-30T03:05:09.067Z,0
2016-11-30T03:06:08.978Z,0
2016-11-30T03:07:09.393Z,0
2016-11-30T03:08:08.335Z,0
2016-11-30T03:09:08.309Z,0
2016-11-30T03:10:08.292Z,0
2016-11-30T03:11:08.274Z,0
2016-11-30T03:12:08.256Z,0
2016-11-30T03:13:08.239Z,0
2016-11-30T03:14:08.218Z,0
2016-11-30T03:15:08.198Z,0
2016-11-30T03:16:08.184Z,0
2016-11-30T03:17:08.162Z,0
2016-11-30T03:18:08.147Z,0
2016-11-30T03:19:08.130Z,0
2016-11-30T03:20:08.104Z,0
2016-11-30T03:21:08.085Z,0
2016-11-30T03:22:08.069Z,0
2016-11-30T03:23:08.050Z,0
2016-11-30T03:24:08.029Z,0
2016-11-30T03:25:08.013Z,0
2016-11-30T03:26:07.995Z,0
2016-11-30T03:27:07.977Z,0
2016-11-30T03:28:07.956Z,0
2016-11-30T03:29:07.939Z,0
2016-11-30T03:30:07.920Z,0
2016-11-30T03:31:07.901Z,0
2016-11-30T03:32:07.885Z,0
2016-11-30T03:33:07.868Z,0
2016-11-30T03:34:07.844Z,0
2016-11-30T03:35:07.827Z,0
2016-11-30T03:36:07.804Z,0
2016-11-30T03:37:07.789Z,0
2016-11-30T03:38:07.768Z,0
2016-11-30T03:39:07.754Z,0
2016-11-30T03:40:07.731Z,0
2016-11-30T03:41:07.713Z,0
2016-11-30T03:42:07.701Z,0
2016-11-30T03:43:07.675Z,0
2016-11-30T03:44:07.663Z,0
2016-11-30T03:45:07.638Z,0
2016-11-30T03:46:07.617Z,0
2016-11-30T03:47:07.601Z,0
2016-11-30T03:48:07.586Z,0
2016-11-30T03:49:07.569Z,0
2016-11-30T03:50:07.548Z,0
2016-11-30T03:51:07.530Z,0
2016-11-30T03:52:07.507Z,0
2016-11-30T03:53:07.486Z,0
2016-11-30T03:54:07.784Z,0
2016-11-30T03:55:07.456Z,0
2016-11-30T03:56:07.437Z,0
2016-11-30T03:57:07.446Z,0
2016-11-30T03:58:07.723Z,0
2016-11-30T03:59:07.378Z,0
2016-11-30T04:00:07.374Z,0
2016-11-30T04:01:07.342Z,0
2016-11-30T04:02:07.322Z,0
2016-11-30T04:03:07.305Z,0
2016-11-30T04:04:07.283Z,0
2016-11-30T04:05:07.272Z,0
2016-11-30T04:06:07.249Z,0
2016-11-30T04:07:07.227Z,0
2016-11-30T04:08:07.209Z,0
2016-11-30T04:09:07.188Z,0
2016-11-30T04:10:07.172Z,0
2016-11-30T04:11:07.154Z,0
2016-11-30T04:12:07.452Z,0
2016-11-30T04:13:07.120Z,0
2016-11-30T04:14:07.093Z,0
2016-11-30T04:15:07.075Z,0
2016-11-30T04:16:07.057Z,0
2016-11-30T04:17:07.034Z,0
2016-11-30T04:18:07.018Z,0
2016-11-30T04:19:07.001Z,0
2016-11-30T04:20:06.989Z,0
2016-11-30T04:21:07.282Z,0
2016-11-30T04:22:06.948Z,0
2016-11-30T04:23:06.925Z,0
2016-11-30T04:24:06.907Z,0
2016-11-30T04:25:06.893Z,0
2016-11-30T04:26:06.863Z,0
2016-11-30T04:27:06.853Z,0
2016-11-30T04:28:06.833Z,0
2016-11-30T04:29:06.817Z,0
2016-11-30T04:30:06.795Z,0
2016-11-30T04:31:06.779Z,0
2016-11-30T04:32:06.758Z,0
2016-11-30T04:33:06.733Z,0
2016-11-30T04:34:06.718Z,0
2016-11-30T04:35:06.705Z,0
2016-11-30T04:36:06.685Z,0
2016-11-30T04:37:06.658Z,0
2016-11-30T04:38:06.638Z,0
2016-11-30T04:39:06.941Z,0
2016-11-30T04:40:06.926Z,0
2016-11-30T04:41:06.591Z,0
2016-11-30T04:42:06.569Z,0
2016-11-30T04:43:06.547Z,0
2016-11-30T04:44:06.531Z,0
2016-11-30T04:45:06.509Z,0
2016-11-30T04:46:06.489Z,0
2016-11-30T04:47:06.473Z,0
2016-11-30T04:48:06.458Z,0
2016-11-30T04:49:06.438Z,0
2016-11-30T04:50:06.417Z,0
2016-11-30T04:51:06.419Z,0
2016-11-30T04:52:06.380Z,0
2016-11-30T04:53:06.365Z,0
2016-11-30T04:54:06.347Z,0
2016-11-30T04:55:06.326Z,0
2016-11-30T04:56:06.312Z,0
2016-11-30T04:57:06.285Z,0
2016-11-30T04:58:06.275Z,0
2016-11-30T04:59:06.249Z,0
2016-11-30T05:00:06.233Z,0
2016-11-30T05:01:06.213Z,0
2016-11-30T05:02:06.188Z,0
2016-11-30T05:03:06.178Z,0
2016-11-30T05:04:06.152Z,0
2016-11-30T05:05:06.460Z,0
2016-11-30T05:06:06.120Z,0
2016-11-30T05:07:06.109Z,0
2016-11-30T05:08:06.083Z,0
2016-11-30T05:09:06.067Z,0
2016-11-30T05:10:06.045Z,0
2016-11-30T05:11:06.019Z,0
2016-11-30T05:12:06.016Z,0
2016-11-30T05:13:05.987Z,0
2016-11-30T05:14:05.967Z,0
2016-11-30T05:15:05.946Z,0
2016-11-30T05:16:05.930Z,0
2016-11-30T05:17:05.940Z,0
2016-11-30T05:18:05.895Z,0
2016-11-30T05:19:05.863Z,0
2016-11-30T05:20:05.854Z,0
2016-11-30T05:21:05.834Z,0
2016-11-30T05:22:05.814Z,0
2016-11-30T05:23:05.799Z,0
2016-11-30T05:24:05.781Z,0
2016-11-30T05:25:05.757Z,0
2016-11-30T05:26:05.736Z,0
2016-11-30T05:27:05.715Z,0
2016-11-30T05:28:05.707Z,0
2016-11-30T05:29:05.683Z,0
2016-11-30T05:30:05.665Z,0
2016-11-30T05:31:05.962Z,0
2016-11-30T05:32:05.627Z,0
2016-11-30T05:33:05.609Z,0
2016-11-30T05:34:05.588Z,0
2016-11-30T05:35:05.577Z,0
2016-11-30T05:36:05.553Z,0
2016-11-30T05:37:05.549Z,0
2016-11-30T05:38:05.513Z,0
2016-11-30T05:39:05.495Z,0
2016-11-30T05:40:05.475Z,0
2016-11-30T05:41:05.458Z,0
2016-11-30T05:42:05.452Z,0
2016-11-30T05:43:05.421Z,0
2016-11-30T05:44:05.405Z,0
2016-11-30T05:45:05.383Z,0
2016-11-30T05:46:05.373Z,0
2016-11-30T05:47:05.347Z,0
2016-11-30T05:48:05.349Z,0
2016-11-30T05:49:05.306Z,0
2016-11-30T05:50:05.286Z,0
2016-11-30T05:51:05.285Z,0
2016-11-30T05:52:05.262Z,0
2016-11-30T05:53:05.232Z,0
2016-11-30T05:54:05.246Z,0
2016-11-30T05:55:05.195Z,0
2016-11-30T05:56:05.189Z,0
2016-11-30T05:57:05.157Z,0
2016-11-30T05:58:05.146Z,0
2016-11-30T05:59:05.120Z,0
2016-11-30T06:00:05.104Z,0
2016-11-30T06:01:05.401Z,0
2016-11-30T06:02:05.067Z,0
2016-11-30T06:03:05.041Z,0
2016-11-30T06:04:05.024Z,0
2016-11-30T06:05:05.009Z,0
2016-11-30T06:06:04.991Z,0
2016-11-30T06:07:04.971Z,0
2016-11-30T06:08:04.947Z,0
2016-11-30T06:09:05.075Z,0
2016-11-30T06:10:04.948Z,0
2016-11-30T06:11:04.923Z,0
2016-11-30T06:12:04.875Z,0
2016-11-30T06:13:04.852Z,0
2016-11-30T06:14:04.845Z,0
2016-11-30T06:15:04.819Z,0
2016-11-30T06:16:04.803Z,0
2016-11-30T06:17:04.784Z,0
2016-11-30T06:18:05.086Z,0
2016-11-30T06:19:04.749Z,0
2016-11-30T06:20:04.724Z,0
2016-11-30T06:21:04.722Z,0
2016-11-30T06:22:04.686Z,0
2016-11-30T06:23:04.670Z,0
2016-11-30T06:24:04.651Z,0
2016-11-30T06:25:04.637Z,0
2016-11-30T06:26:04.613Z,0
2016-11-30T06:27:04.591Z,0
2016-11-30T06:28:04.583Z,0
2016-11-30T06:29:04.555Z,0
2016-11-30T06:30:04.542Z,0
2016-11-30T06:31:04.530Z,0
2016-11-30T06:32:04.501Z,0
2016-11-30T06:33:04.488Z,0
2016-11-30T06:34:04.465Z,0
2016-11-30T06:35:04.451Z,0
2016-11-30T06:36:04.431Z,0
2016-11-30T06:37:04.414Z,0
2016-11-30T06:38:04.392Z,0
2016-11-30T06:39:04.383Z,0
2016-11-30T06:40:04.356Z,0
2016-11-30T06:41:04.337Z,0
2016-11-30T06:42:04.328Z,0
2016-11-30T06:43:04.308Z,0
2016-11-30T06:44:04.280Z,0
2016-11-30T06:45:04.295Z,0
2016-11-30T06:46:04.254Z,5
2016-11-30T06:47:04.226Z,5
2016-11-30T06:48:04.205Z,5
2016-11-30T06:49:36.262Z,5
2016-11-30T06:50:04.164Z,5
2016-11-30T06:51:04.161Z,5
2016-11-30T06:52:04.132Z,5
2016-11-30T06:53:04.116Z,5
2016-11-30T06:54:04.094Z,5
2016-11-30T06:55:04.075Z,5
2016-11-30T06:56:04.064Z,5
2016-11-30T06:57:04.046Z,10
2016-11-30T06:58:04.021Z,10
2016-11-30T06:59:04.006Z,10
2016-11-30T07:00:03.987Z,10
2016-11-30T07:01:03.971Z,10
2016-11-30T07:02:03.960Z,10
2016-11-30T07:03:03.928Z,15
2016-11-30T07:04:03.911Z,15
2016-11-30T07:05:03.898Z,15
2016-11-30T07:06:03.871Z,15
2016-11-30T07:07:04.167Z,15
2016-11-30T07:08:03.839Z,15
2016-11-30T07:09:03.826Z,20
2016-11-30T07:10:03.802Z,20
2016-11-30T07:11:03.792Z,20
2016-11-30T07:12:03.763Z,20
2016-11-30T07:13:03.771Z,20
2016-11-30T07:14:03.728Z,20
2016-11-30T07:15:03.704Z,20
2016-11-30T07:16:03.686Z,20
2016-11-30T07:17:03.675Z,25
2016-11-30T07:18:03.656Z,25
2016-11-30T07:19:03.635Z,25
2016-11-30T07:20:03.621Z,25
2016-11-30T07:21:03.597Z,30
2016-11-30T07:22:03.576Z,30
2016-11-30T07:23:03.558Z,30
2016-11-30T07:24:03.538Z,35
2016-11-30T07:25:03.525Z,35
2016-11-30T07:26:03.504Z,35
2016-11-30T07:27:03.488Z,35
2016-11-30T07:28:03.469Z,40
2016-11-30T07:29:03.454Z,40
2016-11-30T07:30:03.431Z,40
2016-11-30T07:31:03.413Z,40
2016-11-30T07:32:03.397Z,40
2016-11-30T07:33:03.370Z,45
2016-11-30T07:34:03.361Z,45
2016-11-30T07:35:03.339Z,45
2016-11-30T07:36:03.648Z,50
2016-11-30T07:37:03.306Z,50
2016-11-30T07:38:03.279Z,50
2016-11-30T07:39:03.266Z,55
2016-11-30T07:40:03.245Z,55
2016-11-30T07:41:03.234Z,60
2016-11-30T07:42:03.207Z,60
2016-11-30T07:43:03.194Z,60
2016-11-30T07:44:03.180Z,65
2016-11-30T07:45:03.205Z,65
2016-11-30T07:46:03.145Z,65
2016-11-30T07:47:03.132Z,70
2016-11-30T07:48:03.101Z,70
2016-11-30T07:49:03.119Z,70
2016-11-30T07:50:03.074Z,70
2016-11-30T07:51:03.044Z,70
2016-11-30T07:52:03.032Z,70
2016-11-30T07:53:03.348Z,70
2016-11-30T07:54:02.993Z,70
2016-11-30T07:55:02.980Z,70
2016-11-30T07:56:03.274Z,80
2016-11-30T07:57:02.937Z,75
2016-11-30T07:58:02.929Z,75
2016-11-30T07:59:02.903Z,75
2016-11-30T08:00:02.912Z,75
2016-11-30T08:01:02.874Z,75
2016-11-30T08:02:02.859Z,75
2016-11-30T08:03:02.830Z,75
2016-11-30T08:04:02.818Z,75
2016-11-30T08:05:02.799Z,75
2016-11-30T08:06:02.778Z,75
2016-11-30T08:07:02.757Z,75
2016-11-30T08:08:02.740Z,80
2016-11-30T08:09:02.729Z,80
2016-11-30T08:10:02.712Z,80
2016-11-30T08:11:03.009Z,80
2016-11-30T08:12:02.676Z,80
2016-11-30T08:13:02.651Z,80
2016-11-30T08:14:02.626Z,85
2016-11-30T08:15:02.618Z,85
2016-11-30T08:16:02.602Z,90
2016-11-30T08:17:02.906Z,95
2016-11-30T08:18:02.567Z,95
2016-11-30T08:19:02.865Z,100
2016-11-30T08:20:02.843Z,105
2016-11-30T08:21:02.520Z,110
2016-11-30T08:22:02.496Z,115
2016-11-30T08:23:02.477Z,120
2016-11-30T08:24:02.462Z,125
2016-11-30T08:25:02.445Z,125
2016-11-30T08:26:02.422Z,130
2016-11-30T08:27:02.400Z,125
2016-11-30T08:28:02.386Z,125
2016-11-30T08:29:02.699Z,125
2016-11-30T08:30:02.354Z,125
2016-11-30T08:31:02.340Z,125
2016-11-30T08:32:02.316Z,125
2016-11-30T08:33:02.302Z,125
2016-11-30T08:34:02.303Z,125
2016-11-30T08:35:02.264Z,130
2016-11-30T08:36:02.256Z,135
2016-11-30T08:37:02.239Z,135
2016-11-30T08:38:02.217Z,135
2016-11-30T08:39:02.203Z,135
2016-11-30T08:40:02.179Z,135
2016-11-30T08:41:02.159Z,130
2016-11-30T08:42:02.146Z,130
2016-11-30T08:43:02.135Z,130
2016-11-30T08:44:02.115Z,125
2016-11-30T08:45:02.097Z,125
2016-11-30T08:46:02.104Z,130
2016-11-30T08:47:02.059Z,130
2016-11-30T08:48:02.042Z,130
2016-11-30T08:49:02.021Z,130
2016-11-30T08:50:02.005Z,130
2016-11-30T08:51:01.993Z,130
2016-11-30T08:52:01.971Z,130
2016-11-30T08:53:01.958Z,125
2016-11-30T08:54:01.938Z,125
2016-11-30T08:55:01.926Z,120
2016-11-30T08:56:01.904Z,120
2016-11-30T08:57:01.888Z,115
2016-11-30T08:58:01.871Z,115
2016-11-30T08:59:02.169Z,115
2016-11-30T09:00:01.843Z,115
2016-11-30T09:01:01.811Z,115
2016-11-30T09:02:01.807Z,115
2016-11-30T09:03:01.822Z,115
2016-11-30T09:04:01.775Z,110
2016-11-30T09:05:01.751Z,110
2016-11-30T09:06:01.731Z,110
2016-11-30T09:07:01.716Z,110
2016-11-30T09:08:01.702Z,115
2016-11-30T09:09:01.683Z,110
2016-11-30T09:10:01.671Z,110
2016-11-30T09:11:01.654Z,110
2016-11-30T09:12:01.627Z,110
2016-11-30T09:13:01.616Z,110
2016-11-30T09:14:01.607Z,110
2016-11-30T09:15:01.581Z,110
2016-11-30T09:16:01.558Z,115
2016-11-30T09:17:01.545Z,115
2016-11-30T09:18:01.527Z,115
2016-11-30T09:19:01.842Z,115
2016-11-30T09:20:01.501Z,115
2016-11-30T09:21:01.476Z,115
2016-11-30T09:22:01.461Z,115
2016-11-30T09:23:01.450Z,115
2016-11-30T09:24:01.429Z,115
2016-11-30T09:25:01.412Z,115
2016-11-30T09:26:01.396Z,115
2016-11-30T09:27:01.401Z,115
2016-11-30T09:28:01.363Z,115
2016-11-30T09:29:01.660Z,115
2016-11-30T09:30:01.325Z,115
2016-11-30T09:31:01.309Z,115
2016-11-30T09:32:01.288Z,115
2016-11-30T09:33:01.275Z,115
2016-11-30T09:34:01.253Z,120
2016-11-30T09:35:01.237Z,120
2016-11-30T09:36:01.221Z,125
2016-11-30T09:37:01.200Z,130
2016-11-30T09:38:01.184Z,130
2016-11-30T09:39:01.176Z,130
2016-11-30T09:40:01.152Z,135
2016-11-30T09:41:01.136Z,135
2016-11-30T09:42:01.117Z,130
2016-11-30T09:43:01.096Z,130
2016-11-30T09:44:01.407Z,130
2016-11-30T09:45:01.078Z,130
2016-11-30T09:46:01.056Z,130
2016-11-30T09:47:01.039Z,130
2016-11-30T09:48:01.018Z,130
2016-11-30T09:49:01.027Z,130
2016-11-30T09:50:00.986Z,130
2016-11-30T09:51:00.974Z,130
2016-11-30T09:52:00.951Z,130
2016-11-30T09:53:00.941Z,130
2016-11-30T09:54:00.917Z,135
2016-11-30T09:55:00.901Z,135
2016-11-30T09:56:00.883Z,140
2016-11-30T09:57:00.903Z,140
2016-11-30T09:58:00.851Z,145
2016-11-30T09:59:00.851Z,145
2016-11-30T10:00:00.813Z,150
2016-11-30T10:01:00.801Z,150
2016-11-30T10:02:00.785Z,150
2016-11-30T10:03:00.765Z,150
2016-11-30T10:04:00.750Z,150
2016-11-30T10:05:00.735Z,150
2016-11-30T10:06:00.710Z,140
2016-11-30T10:07:00.698Z,135
2016-11-30T10:08:00.678Z,130
2016-11-30T10:09:00.657Z,130
2016-11-30T10:10:00.646Z,125
2016-11-30T10:11:00.633Z,120
2016-11-30T10:12:00.616Z,115
2016-11-30T10:13:00.594Z,115
2016-11-30T10:14:00.581Z,115
2016-11-30T10:15:00.571Z,115
2016-11-30T10:16:00.545Z,115
2016-11-30T10:17:00.533Z,120
2016-11-30T10:18:00.508Z,120
2016-11-30T10:19:00.854Z,120
2016-11-30T10:20:00.478Z,120
2016-11-30T10:21:00.460Z,125
2016-11-30T10:22:00.451Z,125
2016-11-30T10:23:00.428Z,125
2016-11-30T10:24:00.418Z,125
2016-11-30T10:25:00.395Z,125
2016-11-30T10:26:00.376Z,125
2016-11-30T10:27:00.362Z,125
2016-11-30T10:28:00.343Z,125
2016-11-30T10:29:00.330Z,125
2016-11-30T10:30:00.308Z,125
2016-11-30T10:31:00.301Z,125
2016-11-30T10:32:00.278Z,125
2016-11-30T10:33:00.257Z,130
2016-11-30T10:34:00.243Z,135
2016-11-30T10:35:00.226Z,135
2016-11-30T10:36:00.211Z,135
2016-11-30T10:37:00.203Z,135
2016-11-30T10:38:00.179Z,140
2016-11-30T10:39:00.172Z,140
2016-11-30T10:40:00.141Z,140
2016-11-30T10:41:00.128Z,145
2016-11-30T10:42:00.112Z,145
2016-11-30T10:43:00.094Z,145
2016-11-30T10:44:00.076Z,145
2016-11-30T10:45:00.060Z,145
2016-11-30T10:46:00.046Z,145
2016-11-30T10:47:00.030Z,140
2016-11-30T10:48:00.007Z,135
2016-11-30T10:48:59.998Z,130
2016-11-30T10:49:59.979Z,130
2016-11-30T10:50:59.968Z,125
2016-11-30T10:51:59.947Z,125
2016-11-30T10:52:59.922Z,125
2016-11-30T10:53:59.912Z,130
2016-11-30T10:54:59.894Z,130
2016-11-30T10:55:59.876Z,130
2016-11-30T10:56:59.869Z,130
2016-11-30T10:57:59.842Z,130
2016-11-30T10:58:59.828Z,125
2016-11-30T10:59:59.815Z,125
2016-11-30T11:00:59.799Z,120
2016-11-30T11:01:59.782Z,120
2016-11-30T11:02:59.764Z,115
2016-11-30T11:03:59.752Z,115
2016-11-30T11:04:59.733Z,110
2016-11-30T11:05:59.715Z,110
2016-11-30T11:06:59.709Z,105
2016-11-30T11:07:59.679Z,105
2016-11-30T11:08:59.661Z,105
2016-11-30T11:09:59.654Z,105
2016-11-30T11:10:59.630Z,105
2016-11-30T11:11:59.617Z,105
2016-11-30T11:12:59.604Z,110
2016-11-30T11:13:59.592Z,115
2016-11-30T11:14:59.579Z,125
2016-11-30T11:15:59.554Z,130
2016-11-30T11:16:59.539Z,135
2016-11-30T11:17:59.524Z,140
2016-11-30T11:18:59.500Z,145
2016-11-30T11:19:59.490Z,145
2016-11-30T11:20:59.467Z,155
2016-11-30T11:21:59.456Z,160
2016-11-30T11:22:59.438Z,165
2016-11-30T11:23:59.420Z,165
2016-11-30T11:24:59.407Z,170
2016-11-30T11:25:59.388Z,170
2016-11-30T11:26:59.372Z,165
2016-11-30T11:27:59.354Z,170
2016-11-30T11:28:59.342Z,170
2016-11-30T11:29:59.323Z,170
2016-11-30T11:30:59.309Z,170
2016-11-30T11:31:59.293Z,165
2016-11-30T11:32:59.271Z,160
2016-11-30T11:33:59.263Z,160
2016-11-30T11:34:59.247Z,155
2016-11-30T11:35:59.232Z,165
2016-11-30T11:36:59.523Z,165
2016-11-30T11:37:59.223Z,170
2016-11-30T11:38:59.179Z,170
2016-11-30T11:39:59.156Z,170
2016-11-30T11:40:59.147Z,165
2016-11-30T11:41:59.160Z,165
2016-11-30T11:42:59.118Z,165
2016-11-30T11:43:59.098Z,165
2016-11-30T11:44:59.093Z,165
2016-11-30T11:45:59.074Z,165
2016-11-30T11:46:59.059Z,165
2016-11-30T11:47:59.040Z,165
2016-11-30T11:48:59.019Z,170
2016-11-30T11:49:59.012Z,175
2016-11-30T11:50:58.995Z,175
2016-11-30T11:51:58.975Z,175
2016-11-30T11:52:58.955Z,175
2016-11-30T11:53:58.949Z,170
2016-11-30T11:54:58.941Z,170
2016-11-30T11:55:58.914Z,175
2016-11-30T11:56:58.904Z,170
2016-11-30T11:57:58.884Z,170
2016-11-30T11:58:58.885Z,175
2016-11-30T11:59:58.852Z,175
2016-11-30T12:00:58.841Z,180
2016-11-30T12:01:58.824Z,180
2016-11-30T12:02:58.804Z,185
2016-11-30T12:03:58.789Z,185
2016-11-30T12:04:58.780Z,190
2016-11-30T12:05:58.756Z,190
2016-11-30T12:06:58.749Z,190
2016-11-30T12:07:58.726Z,190
2016-11-30T12:08:58.708Z,190
2016-11-30T12:09:58.699Z,195
2016-11-30T12:10:58.681Z,195
2016-11-30T12:11:58.667Z,195
2016-11-30T12:12:58.653Z,190
2016-11-30T12:13:58.633Z,190
2016-11-30T12:14:58.615Z,190
2016-11-30T12:15:58.607Z,185
2016-11-30T12:16:58.592Z,180
2016-11-30T12:17:58.572Z,170
2016-11-30T12:18:58.560Z,165
2016-11-30T12:19:58.547Z,165
2016-11-30T12:20:58.537Z,160
2016-11-30T12:21:58.513Z,155
2016-11-30T12:22:58.497Z,155
2016-11-30T12:23:58.478Z,150
2016-11-30T12:24:58.471Z,150
2016-11-30T12:25:58.446Z,150
2016-11-30T12:26:58.752Z,150
2016-11-30T12:27:58.422Z,150
2016-11-30T12:28:58.408Z,145
2016-11-30T12:29:58.396Z,145
2016-11-30T12:30:58.378Z,145
2016-11-30T12:31:58.362Z,145
2016-11-30T12:32:58.352Z,145
2016-11-30T12:33:58.331Z,150
2016-11-30T12:34:58.319Z,155
2016-11-30T12:35:58.312Z,155
2016-11-30T12:36:58.289Z,160
2016-11-30T12:37:58.268Z,165
2016-11-30T12:38:58.249Z,165
2016-11-30T12:39:58.242Z,165
2016-11-30T12:40:58.233Z,165
2016-11-30T12:41:58.210Z,165
2016-11-30T12:42:58.200Z,165
2016-11-30T12:43:58.173Z,165
2016-11-30T12:44:58.168Z,160
2016-11-30T12:45:58.150Z,160
2016-11-30T12:46:58.133Z,160
2016-11-30T12:47:58.133Z,160
2016-11-30T12:48:58.104Z,160
2016-11-30T12:49:58.087Z,155
2016-11-30T12:50:58.078Z,150
2016-11-30T12:51:58.061Z,145
2016-11-30T12:52:58.049Z,140
2016-11-30T12:53:58.039Z,140
2016-11-30T12:54:58.022Z,135
2016-11-30T12:55:58.017Z,140
2016-11-30T12:56:57.995Z,140
2016-11-30T12:57:57.968Z,145
2016-11-30T12:58:57.954Z,150
2016-11-30T12:59:57.934Z,150
2016-11-30T13:00:57.929Z,150
2016-11-30T13:01:57.913Z,150
2016-11-30T13:02:57.891Z,150
2016-11-30T13:03:57.873Z,150
2016-11-30T13:04:57.860Z,150
2016-11-30T13:05:57.843Z,145
2016-11-30T13:06:57.831Z,135
2016-11-30T13:07:57.810Z,135
2016-11-30T13:08:57.837Z,130
2016-11-30T13:09:57.785Z,135
2016-11-30T13:10:57.770Z,140
2016-11-30T13:11:57.755Z,145
2016-11-30T13:12:57.736Z,145
2016-11-30T13:13:57.723Z,145
2016-11-30T13:14:57.711Z,140
2016-11-30T13:15:57.703Z,135
2016-11-30T13:16:57.685Z,130
2016-11-30T13:17:57.660Z,125
2016-11-30T13:18:57.650Z,120
2016-11-30T13:19:57.630Z,120
2016-11-30T13:20:57.620Z,115
2016-11-30T13:21:57.621Z,110
2016-11-30T13:22:57.584Z,105
2016-11-30T13:23:57.572Z,110
2016-11-30T13:24:57.556Z,110
2016-11-30T13:25:57.541Z,115
2016-11-30T13:26:57.526Z,115
2016-11-30T13:27:57.518Z,115
2016-11-30T13:28:57.496Z,115
2016-11-30T13:29:57.473Z,115
2016-11-30T13:30:57.469Z,115
2016-11-30T13:31:57.443Z,115
2016-11-30T13:32:57.430Z,110
2016-11-30T13:33:57.733Z,110
2016-11-30T13:34:57.402Z,105
2016-11-30T13:35:57.384Z,100
2016-11-30T13:36:57.414Z,100
2016-11-30T13:37:57.356Z,100
2016-11-30T13:38:57.339Z,100
2016-11-30T13:39:57.325Z,95
2016-11-30T13:40:57.324Z,95
2016-11-30T13:41:57.289Z,90
2016-11-30T13:42:57.280Z,90
2016-11-30T13:43:57.262Z,85
2016-11-30T13:44:57.245Z,80
2016-11-30T13:45:57.236Z,75
2016-11-30T13:46:57.228Z,70
2016-11-30T13:47:57.199Z,65
2016-11-30T13:48:57.180Z,65
2016-11-30T13:49:57.172Z,65
2016-11-30T13:50:57.169Z,65
2016-11-30T13:51:57.149Z,65
2016-11-30T13:52:57.120Z,65
2016-11-30T13:53:57.109Z,60
2016-11-30T13:54:57.098Z,60
2016-11-30T13:55:57.074Z,60
2016-11-30T13:56:57.061Z,60
2016-11-30T13:57:57.046Z,55
2016-11-30T13:58:57.025Z,55
2016-11-30T13:59:57.019Z,55
2016-11-30T14:00:56.998Z,55
2016-11-30T14:01:56.989Z,55
2016-11-30T14:02:56.970Z,50
2016-11-30T14:03:56.952Z,50
2016-11-30T14:04:56.932Z,50
2016-11-30T14:05:56.920Z,45
2016-11-30T14:06:56.901Z,45
2016-11-30T14:07:56.898Z,45
2016-11-30T14:08:56.869Z,45
2016-11-30T14:09:56.861Z,40
2016-11-30T14:10:57.157Z,40
2016-11-30T14:11:56.817Z,40
2016-11-30T14:12:56.808Z,35
2016-11-30T14:13:56.790Z,35
2016-11-30T14:14:56.775Z,35
2016-11-30T14:15:56.759Z,35
2016-11-30T14:16:56.741Z,35
2016-11-30T14:17:56.738Z,30
2016-11-30T14:18:56.716Z,30